Time;durP1;ratioP1;P1;durP2;ratioP2;P2;SDS_P1;SDS_P2;PMS_P1;PMS_P2;Temp;Humidity;BMP_temperature;BMP_pressure;BME280_temperature;BME280_humidity;BME280_pressure;Samples;Min_cycle;Max_cycle;Signal;HPM_P1;HPM_P2
2023/10/15 00:01:57;;;;;;;1999.90;999.90;;;;;;;;;;5132177;27;20051;-92
2023/10/15 00:04:24;;;;;;;1999.90;999.90;;;;;;;;;;5124104;27;20511;-93
2023/10/15 00:06:51;;;;;;;1999.90;999.90;;;;;;;;;;5113606;27;20050;-93
2023/10/15 00:09:20;;;;;;;1999.90;999.90;;;;;;;;;;5115084;27;20396;-92
2023/10/15 00:11:47;;;;;;;1999.90;999.90;;;;;;;;;;5116154;27;20468;-92
2023/10/15 00:14:14;;;;;;;1999.90;999.90;;;;;;;;;;5118874;27;20465;-92
2023/10/15 00:16:41;;;;;;;1999.90;999.90;;;;;;;;;;5117175;27;20047;-92
2023/10/15 00:19:10;;;;;;;1999.90;999.90;;;;;;;;;;5118222;27;20052;-92
2023/10/15 00:21:37;;;;;;;1999.90;999.90;;;;;;;;;;5117341;27;20048;-92
2023/10/15 00:24:06;;;;;;;1999.90;999.90;;;;;;;;;;5116724;27;20043;-92
2023/10/15 00:26:35;;;;;;;1999.90;999.90;;;;;;;;;;5113028;27;20056;-91
2023/10/15 00:29:01;;;;;;;1999.90;999.90;;;;;;;;;;5113235;27;20043;-93
2023/10/15 00:31:28;;;;;;;1999.90;999.90;;;;;;;;;;5117236;27;20058;-92
2023/10/15 00:33:54;;;;;;;1999.90;999.90;;;;;;;;;;5114938;27;20044;-92
2023/10/15 00:36:23;;;;;;;1999.90;999.90;;;;;;;;;;5117573;27;20058;-91
2023/10/15 00:38:49;;;;;;;1999.90;999.90;;;;;;;;;;5110528;27;20044;-92
2023/10/15 00:41:16;;;;;;;1999.90;999.90;;;;;;;;;;5113615;27;20050;-91
2023/10/15 00:43:54;;;;;;;1999.90;999.90;;;;;;;;;;5119330;27;20054;-92
2023/10/15 00:46:24;;;;;;;1999.90;999.90;;;;;;;;;;5111802;27;20051;-92
2023/10/15 00:48:51;;;;;;;1999.90;999.90;;;;;;;;;;5114721;27;20487;-92
2023/10/15 00:51:20;;;;;;;1999.90;999.90;;;;;;;;;;5117780;27;20062;-91
2023/10/15 00:53:50;;;;;;;1999.90;999.90;;;;;;;;;;5113550;27;20440;-92
2023/10/15 00:56:19;;;;;;;1999.90;999.90;;;;;;;;;;5114375;27;20484;-91
2023/10/15 00:59:08;;;;;;;1999.90;999.90;;;;;;;;;;5119375;27;20054;-91
2023/10/15 01:01:38;;;;;;;1999.90;999.90;;;;;;;;;;5118887;27;20043;-91
2023/10/15 01:04:06;;;;;;;1999.90;999.90;;;;;;;;;;5110777;27;20096;-90
2023/10/15 01:06:35;;;;;;;1999.90;999.90;;;;;;;;;;5115622;27;20047;-92
2023/10/15 01:09:08;;;;;;;1999.90;999.90;;;;;;;;;;5115823;27;20088;-91
2023/10/15 01:11:36;;;;;;;1999.90;999.90;;;;;;;;;;5115878;27;20050;-93
2023/10/15 01:14:03;;;;;;;1999.90;999.90;;;;;;;;;;5118794;27;20490;-91
2023/10/15 01:16:31;;;;;;;1999.90;999.90;;;;;;;;;;5112316;27;20054;-92
2023/10/15 01:19:05;;;;;;;1999.90;999.90;;;;;;;;;;5110311;27;20046;-92
2023/10/15 01:21:32;;;;;;;1999.90;999.90;;;;;;;;;;5110236;27;20039;-92
2023/10/15 01:24:05;;;;;;;1999.90;999.90;;;;;;;;;;5117075;27;20054;-91
2023/10/15 01:26:36;;;;;;;1999.90;999.90;;;;;;;;;;5115718;27;20094;-91
2023/10/15 01:29:05;;;;;;;1999.90;999.90;;;;;;;;;;5112692;27;20173;-92
2023/10/15 01:31:39;;;;;;;1999.90;999.90;;;;;;;;;;5114782;27;20039;-92
2023/10/15 01:34:09;;;;;;;1999.90;999.90;;;;;;;;;;5112536;27;20044;-92
2023/10/15 01:36:38;;;;;;;1999.90;999.90;;;;;;;;;;5118470;27;20050;-92
2023/10/15 01:39:12;;;;;;;1999.90;999.90;;;;;;;;;;5116795;27;20385;-91
2023/10/15 01:41:42;;;;;;;1999.90;999.90;;;;;;;;;;5108862;27;20043;-91
2023/10/15 01:44:10;;;;;;;1999.90;999.90;;;;;;;;;;5114097;27;20130;-91
2023/10/15 01:46:46;;;;;;;1999.90;999.90;;;;;;;;;;5118968;27;20048;-91
2023/10/15 01:49:19;;;;;;;1999.90;999.90;;;;;;;;;;5123985;27;20047;-91
2023/10/15 01:51:46;;;;;;;1999.90;999.90;;;;;;;;;;5104668;27;20487;-92
2023/10/15 01:54:13;;;;;;;1999.90;999.90;;;;;;;;;;5123277;27;20089;-92
2023/10/15 01:56:44;;;;;;;1999.90;999.90;;;;;;;;;;5113808;27;20381;-92
2023/10/15 01:59:11;;;;;;;1999.90;999.90;;;;;;;;;;5114988;27;20055;-92
2023/10/15 02:01:40;;;;;;;1999.90;999.90;;;;;;;;;;5119216;27;20142;-92
2023/10/15 02:04:08;;;;;;;1999.90;999.90;;;;;;;;;;5108524;27;20051;-92
2023/10/15 02:06:43;;;;;;;1999.90;999.90;;;;;;;;;;5114697;27;20039;-91
2023/10/15 02:09:12;;;;;;;1999.90;999.90;;;;;;;;;;5113399;27;20052;-92
2023/10/15 02:11:47;;;;;;;1999.90;999.90;;;;;;;;;;5117927;28;20044;-92
2023/10/15 02:14:20;;;;;;;1999.90;999.90;;;;;;;;;;5113669;27;20059;-91
2023/10/15 02:16:49;;;;;;;1999.90;999.90;;;;;;;;;;5115669;27;20385;-92
2023/10/15 02:19:19;;;;;;;1999.90;999.90;;;;;;;;;;5110436;27;20082;-91
2023/10/15 02:21:49;;;;;;;1999.90;999.90;;;;;;;;;;5115839;27;20051;-91
2023/10/15 02:24:16;;;;;;;1999.90;999.90;;;;;;;;;;5109833;27;20055;-91
2023/10/15 02:26:43;;;;;;;1999.90;999.90;;;;;;;;;;5111465;27;20579;-91
2023/10/15 02:29:27;;;;;;;1999.90;999.90;;;;;;;;;;5114528;28;20488;-91
2023/10/15 02:31:58;;;;;;;1999.90;999.90;;;;;;;;;;5117068;28;20051;-91
2023/10/15 02:34:27;;;;;;;1999.90;999.90;;;;;;;;;;5113341;28;20056;-92
2023/10/15 02:36:54;;;;;;;1999.90;999.90;;;;;;;;;;5114270;28;20084;-91
2023/10/15 02:39:22;;;;;;;1999.90;999.90;;;;;;;;;;5112934;28;20047;-91
2023/10/15 02:41:52;;;;;;;1999.90;999.90;;;;;;;;;;5114266;28;20396;-92
2023/10/15 02:44:18;;;;;;;1999.90;999.90;;;;;;;;;;5113592;28;20096;-92
2023/10/15 02:46:49;;;;;;;1999.90;999.90;;;;;;;;;;5121647;28;20125;-92
2023/10/15 02:49:18;;;;;;;1999.90;999.90;;;;;;;;;;5115502;28;20471;-92
2023/10/15 02:51:45;;;;;;;1999.90;999.90;;;;;;;;;;5110277;28;20055;-92
2023/10/15 02:54:26;;;;;;;1999.90;999.90;;;;;;;;;;5116293;28;20047;-92
2023/10/15 02:56:56;;;;;;;1999.90;999.90;;;;;;;;;;5110534;28;20047;-92
2023/10/15 02:59:23;;;;;;;1999.90;999.90;;;;;;;;;;5114500;28;20043;-92
2023/10/15 03:01:54;;;;;;;1999.90;999.90;;;;;;;;;;5117236;28;20146;-91
2023/10/15 03:04:33;;;;;;;1999.90;999.90;;;;;;;;;;5117276;28;20059;-93
2023/10/15 03:07:17;;;;;;;1999.90;999.90;;;;;;;;;;5111858;28;20051;-92
2023/10/15 03:09:44;;;;;;;1999.90;999.90;;;;;;;;;;5112788;28;20487;-93
2023/10/15 03:12:13;;;;;;;1999.90;999.90;;;;;;;;;;5114353;28;20043;-92
2023/10/15 03:14:41;;;;;;;1999.90;999.90;;;;;;;;;;5109758;28;20131;-92
2023/10/15 03:17:13;;;;;;;1999.90;999.90;;;;;;;;;;5115922;28;20047;-93
2023/10/15 03:19:41;;;;;;;1999.90;999.90;;;;;;;;;;5107826;28;20039;-93
2023/10/15 03:22:12;;;;;;;1999.90;999.90;;;;;;;;;;5117234;28;20061;-93
2023/10/15 03:24:43;;;;;;;1999.90;999.90;;;;;;;;;;5111684;28;20052;-92
2023/10/15 03:27:11;;;;;;;1999.90;999.90;;;;;;;;;;5112278;27;20473;-92
2023/10/15 03:29:38;;;;;;;1999.90;999.90;;;;;;;;;;5110223;27;20134;-92
2023/10/15 03:32:09;;;;;;;1999.90;999.90;;;;;;;;;;5111008;27;20051;-91
2023/10/15 03:34:42;;;;;;;1999.90;999.90;;;;;;;;;;5116217;27;20079;-92
2023/10/15 03:37:13;;;;;;;1999.90;999.90;;;;;;;;;;5115048;27;20444;-92
2023/10/15 03:39:55;;;;;;;1999.90;999.90;;;;;;;;;;5118207;27;20126;-92
2023/10/15 03:42:26;;;;;;;1999.90;999.90;;;;;;;;;;5120969;27;20440;-92
2023/10/15 03:44:59;;;;;;;1999.90;999.90;;;;;;;;;;5119795;27;20048;-92
2023/10/15 03:47:26;;;;;;;1999.90;999.90;;;;;;;;;;5121025;27;20108;-92
2023/10/15 03:49:55;;;;;;;1999.90;999.90;;;;;;;;;;5107772;27;20128;-91
2023/10/15 03:52:26;;;;;;;1999.90;999.90;;;;;;;;;;5109476;27;20124;-91
2023/10/15 03:54:52;;;;;;;1999.90;999.90;;;;;;;;;;5120802;27;20050;-92
2023/10/15 03:57:22;;;;;;;1999.90;999.90;;;;;;;;;;5117492;27;20052;-91
2023/10/15 03:59:52;;;;;;;1999.90;999.90;;;;;;;;;;5118994;27;20051;-91
2023/10/15 04:02:25;;;;;;;1999.90;999.90;;;;;;;;;;5112842;27;20051;-92
2023/10/15 04:05:00;;;;;;;1999.90;999.90;;;;;;;;;;5118804;27;20051;-91
2023/10/15 04:07:30;;;;;;;1999.90;999.90;;;;;;;;;;5116174;27;20040;-91
2023/10/15 04:09:57;;;;;;;1999.90;999.90;;;;;;;;;;5115390;27;20046;-91
2023/10/15 04:12:27;;;;;;;1999.90;999.90;;;;;;;;;;5118314;27;20509;-91
2023/10/15 04:14:55;;;;;;;1999.90;999.90;;;;;;;;;;5114372;27;20138;-91
2023/10/15 04:17:22;;;;;;;1999.90;999.90;;;;;;;;;;5118686;27;20043;-92
2023/10/15 04:19:49;;;;;;;1999.90;999.90;;;;;;;;;;5112462;27;20047;-91
2023/10/15 04:22:15;;;;;;;1999.90;999.90;;;;;;;;;;5113107;27;20066;-92
2023/10/15 04:24:46;;;;;;;1999.90;999.90;;;;;;;;;;5114620;27;20503;-92
2023/10/15 04:27:16;;;;;;;1999.90;999.90;;;;;;;;;;5117675;27;20128;-92
2023/10/15 04:29:50;;;;;;;1999.90;999.90;;;;;;;;;;5117414;27;20043;-91
2023/10/15 04:32:23;;;;;;;1999.90;999.90;;;;;;;;;;5120693;27;20579;-91
2023/10/15 04:34:52;;;;;;;1999.90;999.90;;;;;;;;;;5113638;27;20373;-90
2023/10/15 04:37:20;;;;;;;1999.90;999.90;;;;;;;;;;5108821;27;20079;-91
2023/10/15 04:39:52;;;;;;;1999.90;999.90;;;;;;;;;;5110841;27;20082;-91
2023/10/15 04:42:28;;;;;;;1999.90;999.90;;;;;;;;;;5104930;27;20044;-92
2023/10/15 04:44:54;;;;;;;1999.90;999.90;;;;;;;;;;5106598;27;20048;-91
2023/10/15 04:47:25;;;;;;;1999.90;999.90;;;;;;;;;;5108594;27;20044;-91
2023/10/15 04:49:56;;;;;;;1999.90;999.90;;;;;;;;;;5109468;27;20055;-92
2023/10/15 04:52:23;;;;;;;1999.90;999.90;;;;;;;;;;5112535;27;20134;-90
2023/10/15 04:54:55;;;;;;;1999.90;999.90;;;;;;;;;;5114715;27;20051;-91
2023/10/15 04:57:22;;;;;;;1999.90;999.90;;;;;;;;;;5117251;27;20087;-90
2023/10/15 04:59:49;;;;;;;1999.90;999.90;;;;;;;;;;5118438;27;20050;-92
2023/10/15 05:02:15;;;;;;;1999.90;999.90;;;;;;;;;;5119441;27;20054;-91
2023/10/15 05:04:42;;;;;;;1999.90;999.90;;;;;;;;;;5120148;27;20070;-91
2023/10/15 05:07:09;;;;;;;1999.90;999.90;;;;;;;;;;5118323;27;20058;-91
2023/10/15 05:09:40;;;;;;;1999.90;999.90;;;;;;;;;;5116048;27;20452;-91
2023/10/15 05:12:08;;;;;;;1999.90;999.90;;;;;;;;;;5117146;27;20051;-92
2023/10/15 05:14:35;;;;;;;1999.90;999.90;;;;;;;;;;5120491;27;20046;-91
2023/10/15 05:17:02;;;;;;;1999.90;999.90;;;;;;;;;;5115589;27;20047;-91
2023/10/15 05:19:29;;;;;;;1999.90;999.90;;;;;;;;;;5114651;27;20126;-91
2023/10/15 05:21:56;;;;;;;1999.90;999.90;;;;;;;;;;5113593;27;20328;-89
2023/10/15 05:24:22;;;;;;;1999.90;999.90;;;;;;;;;;5115489;27;20048;-91
2023/10/15 05:26:49;;;;;;;1999.90;999.90;;;;;;;;;;5122700;27;20414;-91
2023/10/15 05:29:17;;;;;;;1999.90;999.90;;;;;;;;;;5111664;27;20043;-91
2023/10/15 05:31:44;;;;;;;1999.90;999.90;;;;;;;;;;5114009;27;20056;-90
2023/10/15 05:34:11;;;;;;;1999.90;999.90;;;;;;;;;;5114842;27;20051;-91
2023/10/15 05:36:39;;;;;;;1999.90;999.90;;;;;;;;;;5109599;27;20531;-91
2023/10/15 05:39:08;;;;;;;1999.90;999.90;;;;;;;;;;5115983;27;20405;-91
2023/10/15 05:41:34;;;;;;;1999.90;999.90;;;;;;;;;;5106140;27;20054;-92
2023/10/15 05:44:01;;;;;;;1999.90;999.90;;;;;;;;;;5120639;27;20154;-91
2023/10/15 05:46:29;;;;;;;1999.90;999.90;;;;;;;;;;5113533;27;20056;-92
2023/10/15 05:48:57;;;;;;;1999.90;999.90;;;;;;;;;;5114572;27;20048;-91
2023/10/15 05:51:23;;;;;;;1999.90;999.90;;;;;;;;;;5111526;27;20105;-91
2023/10/15 05:53:50;;;;;;;1999.90;999.90;;;;;;;;;;5108593;27;20531;-92
2023/10/15 05:56:18;;;;;;;1999.90;999.90;;;;;;;;;;5120368;27;20043;-92
2023/10/15 05:58:45;;;;;;;1999.90;999.90;;;;;;;;;;5114468;27;20051;-92
2023/10/15 06:01:11;;;;;;;1999.90;999.90;;;;;;;;;;5113190;27;20047;-92
2023/10/15 06:03:40;;;;;;;1999.90;999.90;;;;;;;;;;5108847;27;20050;-91
2023/10/15 06:06:07;;;;;;;1999.90;999.90;;;;;;;;;;5122115;27;20063;-91
2023/10/15 06:08:34;;;;;;;1999.90;999.90;;;;;;;;;;5118172;27;20055;-91
2023/10/15 06:11:00;;;;;;;1999.90;999.90;;;;;;;;;;5112559;27;20380;-92
2023/10/15 06:13:27;;;;;;;1999.90;999.90;;;;;;;;;;5116222;27;20062;-92
2023/10/15 06:15:53;;;;;;;1999.90;999.90;;;;;;;;;;5109018;27;20051;-92
2023/10/15 06:18:20;;;;;;;1999.90;999.90;;;;;;;;;;5114377;27;20514;-91
2023/10/15 06:20:48;;;;;;;1999.90;999.90;;;;;;;;;;5114562;27;20051;-93
2023/10/15 06:23:14;;;;;;;1999.90;999.90;;;;;;;;;;5111045;27;20052;-92
2023/10/15 06:25:42;;;;;;;1999.90;999.90;;;;;;;;;;5106404;28;20043;-92
2023/10/15 06:28:13;;;;;;;1999.90;999.90;;;;;;;;;;5115695;28;20144;-91
2023/10/15 06:30:41;;;;;;;1999.90;999.90;;;;;;;;;;5115258;28;20499;-93
2023/10/15 06:33:07;;;;;;;1999.90;999.90;;;;;;;;;;5116085;28;20043;-91
2023/10/15 06:35:34;;;;;;;1999.90;999.90;;;;;;;;;;5110823;28;20045;-91
2023/10/15 06:38:02;;;;;;;1999.90;999.90;;;;;;;;;;5114695;28;20049;-92
2023/10/15 06:40:29;;;;;;;1999.90;999.90;;;;;;;;;;5116497;28;20055;-91
2023/10/15 06:43:00;;;;;;;1999.90;999.90;;;;;;;;;;5120977;28;20051;-92
2023/10/15 06:45:27;;;;;;;1999.90;999.90;;;;;;;;;;5113840;28;20056;-91
2023/10/15 06:47:55;;;;;;;1999.90;999.90;;;;;;;;;;5113880;28;20138;-91
2023/10/15 06:50:22;;;;;;;1999.90;999.90;;;;;;;;;;5119050;28;20112;-92
2023/10/15 06:52:49;;;;;;;1999.90;999.90;;;;;;;;;;5113748;28;20104;-92
2023/10/15 06:55:19;;;;;;;1999.90;999.90;;;;;;;;;;5117391;28;20047;-91
2023/10/15 06:57:46;;;;;;;1999.90;999.90;;;;;;;;;;5115828;28;20105;-90
2023/10/15 07:00:21;;;;;;;1999.90;999.90;;;;;;;;;;5119040;27;20051;-92
2023/10/15 07:02:48;;;;;;;1999.90;999.90;;;;;;;;;;5114128;27;20109;-92
2023/10/15 07:05:16;;;;;;;1999.90;999.90;;;;;;;;;;5116708;27;20108;-93
2023/10/15 07:07:45;;;;;;;1999.90;999.90;;;;;;;;;;5116053;27;20107;-92
2023/10/15 07:10:15;;;;;;;1999.90;999.90;;;;;;;;;;5115678;27;20050;-93
2023/10/15 07:12:44;;;;;;;1999.90;999.90;;;;;;;;;;5122291;27;20050;-92
2023/10/15 07:15:13;;;;;;;1999.90;999.90;;;;;;;;;;5122979;27;20051;-92
2023/10/15 07:17:40;;;;;;;1999.90;999.90;;;;;;;;;;5119476;27;20457;-93
2023/10/15 07:20:14;;;;;;;1999.90;999.90;;;;;;;;;;5112505;27;20054;-92
2023/10/15 07:22:41;;;;;;;1999.90;999.90;;;;;;;;;;5118305;27;20075;-92
2023/10/15 07:25:09;;;;;;;1999.90;999.90;;;;;;;;;;5121344;27;20048;-92
2023/10/15 07:27:36;;;;;;;1999.90;999.90;;;;;;;;;;5121207;27;20059;-92
2023/10/15 07:30:06;;;;;;;1999.90;999.90;;;;;;;;;;5116796;27;20047;-91
2023/10/15 07:32:34;;;;;;;1999.90;999.90;;;;;;;;;;5116034;27;20511;-91
2023/10/15 07:35:00;;;;;;;1999.90;999.90;;;;;;;;;;5118868;27;20044;-92
2023/10/15 07:37:28;;;;;;;1999.90;999.90;;;;;;;;;;5121030;27;20452;-89
2023/10/15 07:39:55;;;;;;;1999.90;999.90;;;;;;;;;;5110574;27;20097;-93
2023/10/15 07:42:25;;;;;;;1999.90;999.90;;;;;;;;;;5110099;27;20062;-95
2023/10/15 07:44:52;;;;;;;1999.90;999.90;;;;;;;;;;5120290;27;20043;-94
2023/10/15 07:47:20;;;;;;;1999.90;999.90;;;;;;;;;;5117368;27;20097;-93
2023/10/15 07:49:46;;;;;;;1999.90;999.90;;;;;;;;;;5114759;27;20563;-93
2023/10/15 07:52:13;;;;;;;1999.90;999.90;;;;;;;;;;5114248;27;20044;-94
2023/10/15 07:54:39;;;;;;;1999.90;999.90;;;;;;;;;;5124776;27;20048;-92
2023/10/15 07:57:07;;;;;;;1999.90;999.90;;;;;;;;;;5126809;27;20106;-94
2023/10/15 07:59:34;;;;;;;1999.90;999.90;;;;;;;;;;5127839;27;20055;-94
2023/10/15 08:02:01;;;;;;;1999.90;999.90;;;;;;;;;;5120078;27;20065;-93
2023/10/15 08:04:29;;;;;;;1999.90;999.90;;;;;;;;;;5119306;27;20048;-96
2023/10/15 08:06:56;;;;;;;1999.90;999.90;;;;;;;;;;5119781;27;20059;-95
2023/10/15 08:09:23;;;;;;;1999.90;999.90;;;;;;;;;;5118217;27;20043;-95
2023/10/15 08:11:50;;;;;;;1999.90;999.90;;;;;;;;;;5121010;27;20050;-95
2023/10/15 08:14:17;;;;;;;1999.90;999.90;;;;;;;;;;5121309;27;20044;-95
2023/10/15 08:16:44;;;;;;;1999.90;999.90;;;;;;;;;;5116673;27;20044;-93
2023/10/15 08:19:10;;;;;;;1999.90;999.90;;;;;;;;;;5118598;27;20048;-95
2023/10/15 08:21:38;;;;;;;1999.90;999.90;;;;;;;;;;5113251;27;20539;-96
2023/10/15 08:24:06;;;;;;;1999.90;999.90;;;;;;;;;;5117418;27;20059;-95
2023/10/15 08:26:32;;;;;;;1999.90;999.90;;;;;;;;;;5114697;27;20052;-92
2023/10/15 08:28:59;;;;;;;1999.90;999.90;;;;;;;;;;5115867;27;20395;-92
2023/10/15 08:31:25;;;;;;;1999.90;999.90;;;;;;;;;;5115548;27;20468;-90
2023/10/15 08:33:52;;;;;;;1999.90;999.90;;;;;;;;;;5113653;27;20036;-93
2023/10/15 08:36:19;;;;;;;1999.90;999.90;;;;;;;;;;5110819;27;20380;-88
2023/10/15 08:38:49;;;;;;;1999.90;999.90;;;;;;;;;;5114190;27;20067;-85
2023/10/15 08:41:29;;;;;;;1999.90;999.90;;;;;;;;;;5128459;27;20047;-88
2023/10/15 08:43:58;;;;;;;1999.90;999.90;;;;;;;;;;5108126;27;20067;-90
2023/10/15 08:46:25;;;;;;;1999.90;999.90;;;;;;;;;;5123657;27;20053;-88
2023/10/15 08:48:54;;;;;;;1999.90;999.90;;;;;;;;;;5121719;27;20034;-91
2023/10/15 08:51:22;;;;;;;1999.90;999.90;;;;;;;;;;5149003;27;20046;-91
2023/10/15 08:53:51;;;;;;;1999.90;999.90;;;;;;;;;;5144065;27;20081;-92
2023/10/15 08:56:21;;;;;;;1999.90;999.90;;;;;;;;;;5147379;27;20055;-90
2023/10/15 08:58:52;;;;;;;1999.90;999.90;;;;;;;;;;5148130;27;20046;-89
2023/10/15 09:01:23;;;;;;;1999.90;999.90;;;;;;;;;;5119731;28;20055;-91
2023/10/15 09:03:52;;;;;;;1999.90;999.90;;;;;;;;;;5121499;28;20047;-91
2023/10/15 09:06:19;;;;;;;1999.90;999.90;;;;;;;;;;5123865;27;20507;-91
2023/10/15 09:08:46;;;;;;;1999.90;999.90;;;;;;;;;;5136319;27;20408;-88
2023/10/15 09:11:16;;;;;;;1999.90;999.90;;;;;;;;;;5136123;27;20130;-92
2023/10/15 09:13:43;;;;;;;1999.90;999.90;;;;;;;;;;5125998;27;20073;-90
2023/10/15 09:16:10;;;;;;;1999.90;999.90;;;;;;;;;;5137239;27;20077;-91
2023/10/15 09:18:38;;;;;;;1999.90;999.90;;;;;;;;;;5113578;27;20053;-92
2023/10/15 09:21:05;;;;;;;1999.90;999.90;;;;;;;;;;5125542;27;20044;-89
2023/10/15 09:23:35;;;;;;;1999.90;999.90;;;;;;;;;;5123833;27;20048;-91
2023/10/15 09:26:02;;;;;;;1999.90;999.90;;;;;;;;;;5122406;27;20074;-87
2023/10/15 09:28:31;;;;;;;1999.90;999.90;;;;;;;;;;5115208;27;20067;-89
2023/10/15 09:31:04;;;;;;;1999.90;999.90;;;;;;;;;;5126976;27;20040;-94
2023/10/15 09:33:31;;;;;;;1999.90;999.90;;;;;;;;;;5125366;27;20054;-92
2023/10/15 09:35:59;;;;;;;1999.90;999.90;;;;;;;;;;5132211;27;20126;-90
2023/10/15 09:38:28;;;;;;;1999.90;999.90;;;;;;;;;;5127809;27;20063;-91
2023/10/15 09:40:56;;;;;;;1999.90;999.90;;;;;;;;;;5124245;27;20047;-93
2023/10/15 09:43:24;;;;;;;1999.90;999.90;;;;;;;;;;5124701;27;20051;-92
2023/10/15 09:45:54;;;;;;;1999.90;999.90;;;;;;;;;;5122400;27;20043;-89
2023/10/15 09:48:24;;;;;;;1999.90;999.90;;;;;;;;;;5117595;27;20058;-88
2023/10/15 09:50:52;;;;;;;1999.90;999.90;;;;;;;;;;5128152;27;20020;-88
2023/10/15 09:53:21;;;;;;;1999.90;999.90;;;;;;;;;;5115375;27;20059;-90
2023/10/15 09:55:49;;;;;;;1999.90;999.90;;;;;;;;;;5122760;27;20052;-89
2023/10/15 09:58:17;;;;;;;1999.90;999.90;;;;;;;;;;5120187;27;20056;-89
2023/10/15 10:04:19;;;;;;;1999.90;999.90;;;;;;;;;;5133244;27;20101;-89
2023/10/15 10:07:16;;;;;;;1999.90;999.90;;;;;;;;;;5123126;27;20149;-91
2023/10/15 10:09:57;;;;;;;1999.90;999.90;;;;;;;;;;5124045;27;20047;-90
2023/10/15 10:12:36;;;;;;;1999.90;999.90;;;;;;;;;;5121607;27;20058;-89
2023/10/15 10:15:23;;;;;;;1999.90;999.90;;;;;;;;;;5116166;28;20185;-87
2023/10/15 10:17:52;;;;;;;1999.90;999.90;;;;;;;;;;5118641;27;20133;-88
2023/10/15 10:20:19;;;;;;;1999.90;999.90;;;;;;;;;;5121596;27;20451;-88
2023/10/15 10:22:57;;;;;;;1999.90;999.90;;;;;;;;;;5112847;27;20048;-88
2023/10/15 10:25:31;;;;;;;1999.90;999.90;;;;;;;;;;5114984;28;20419;-89
2023/10/15 10:28:07;;;;;;;1999.90;999.90;;;;;;;;;;5117832;28;20050;-88
2023/10/15 10:30:34;;;;;;;1999.90;999.90;;;;;;;;;;5130127;27;20043;-89
2023/10/15 10:33:04;;;;;;;1999.90;999.90;;;;;;;;;;5124179;28;20122;-88
2023/10/15 10:35:42;;;;;;;1999.90;999.90;;;;;;;;;;5132328;27;20074;-89
2023/10/15 10:38:11;;;;;;;1999.90;999.90;;;;;;;;;;5135477;27;20075;-89
2023/10/15 10:40:56;;;;;;;1999.90;999.90;;;;;;;;;;5114395;28;20051;-90
2023/10/15 10:43:26;;;;;;;1999.90;999.90;;;;;;;;;;5120445;27;20082;-91
2023/10/15 10:45:54;;;;;;;1999.90;999.90;;;;;;;;;;5127716;27;20563;-89
2023/10/15 10:48:24;;;;;;;1999.90;999.90;;;;;;;;;;5122720;27;20054;-88
2023/10/15 10:51:21;;;;;;;1999.90;999.90;;;;;;;;;;5128642;27;20051;-90
2023/10/15 10:54:25;;;;;;;1999.90;999.90;;;;;;;;;;5137901;27;20068;-91
2023/10/15 10:56:58;;;;;;;1999.90;999.90;;;;;;;;;;5127427;27;20142;-89
2023/10/15 10:59:25;;;;;;;1999.90;999.90;;;;;;;;;;5138620;27;20047;-89
2023/10/15 11:01:52;;;;;;;1999.90;999.90;;;;;;;;;;5129746;27;20115;-90
2023/10/15 11:04:20;;;;;;;1999.90;999.90;;;;;;;;;;5138465;27;20051;-91
2023/10/15 11:06:48;;;;;;;1999.90;999.90;;;;;;;;;;5135190;27;20075;-93
2023/10/15 11:09:16;;;;;;;1999.90;999.90;;;;;;;;;;5136949;27;20089;-89
2023/10/15 11:11:43;;;;;;;1999.90;999.90;;;;;;;;;;5119582;27;20052;-88
2023/10/15 11:14:12;;;;;;;1999.90;999.90;;;;;;;;;;5125732;27;20057;-89
2023/10/15 11:16:39;;;;;;;1999.90;999.90;;;;;;;;;;5120658;27;20098;-93
2023/10/15 11:19:14;;;;;;;1999.90;999.90;;;;;;;;;;5120293;27;20051;-90
2023/10/15 11:21:42;;;;;;;1999.90;999.90;;;;;;;;;;5120776;27;20043;-88
2023/10/15 11:24:09;;;;;;;1999.90;999.90;;;;;;;;;;5126457;27;20062;-89
2023/10/15 11:26:36;;;;;;;1999.90;999.90;;;;;;;;;;5123171;27;20058;-89
2023/10/15 11:29:04;;;;;;;1999.90;999.90;;;;;;;;;;5122481;27;20073;-88
2023/10/15 11:31:31;;;;;;;1999.90;999.90;;;;;;;;;;5120711;27;20489;-89
2023/10/15 11:33:57;;;;;;;1999.90;999.90;;;;;;;;;;5123071;27;20047;-85
2023/10/15 11:36:24;;;;;;;1999.90;999.90;;;;;;;;;;5120000;27;20468;-85
2023/10/15 11:38:53;;;;;;;1999.90;999.90;;;;;;;;;;5125345;27;20048;-88
2023/10/15 11:41:19;;;;;;;1999.90;999.90;;;;;;;;;;5120237;27;20142;-87
2023/10/15 11:43:49;;;;;;;1999.90;999.90;;;;;;;;;;5115596;27;20073;-88
2023/10/15 11:46:19;;;;;;;1999.90;999.90;;;;;;;;;;5121074;27;20051;-88
2023/10/15 11:48:46;;;;;;;1999.90;999.90;;;;;;;;;;5120065;27;20066;-90
2023/10/15 11:51:12;;;;;;;1999.90;999.90;;;;;;;;;;5117392;27;20048;-87
2023/10/15 11:53:41;;;;;;;1999.90;999.90;;;;;;;;;;5117408;27;20143;-88
2023/10/15 11:56:16;;;;;;;1999.90;999.90;;;;;;;;;;5117297;27;20050;-86
2023/10/15 11:58:45;;;;;;;1999.90;999.90;;;;;;;;;;5114374;27;20483;-87
2023/10/15 12:01:14;;;;;;;1999.90;999.90;;;;;;;;;;5109722;27;20077;-86
2023/10/15 12:03:41;;;;;;;1999.90;999.90;;;;;;;;;;5116487;27;20100;-85
2023/10/15 12:06:08;;;;;;;1999.90;999.90;;;;;;;;;;5113850;27;20044;-88
2023/10/15 12:08:34;;;;;;;1999.90;999.90;;;;;;;;;;5119454;27;20122;-86
2023/10/15 12:11:01;;;;;;;1999.90;999.90;;;;;;;;;;5118270;27;20043;-89
2023/10/15 12:13:29;;;;;;;1999.90;999.90;;;;;;;;;;5114393;27;20051;-90
2023/10/15 12:15:56;;;;;;;1999.90;999.90;;;;;;;;;;5113085;27;20048;-85
2023/10/15 12:18:22;;;;;;;1999.90;999.90;;;;;;;;;;5122412;27;20043;-85
2023/10/15 12:20:49;;;;;;;1999.90;999.90;;;;;;;;;;5117147;27;20155;-84
2023/10/15 12:23:15;;;;;;;1999.90;999.90;;;;;;;;;;5115784;27;20048;-84
2023/10/15 12:25:42;;;;;;;1999.90;999.90;;;;;;;;;;5115285;27;20052;-85
2023/10/15 12:28:08;;;;;;;1999.90;999.90;;;;;;;;;;5114649;27;20109;-84
2023/10/15 12:30:36;;;;;;;1999.90;999.90;;;;;;;;;;5118295;27;20047;-87
2023/10/15 12:33:06;;;;;;;1999.90;999.90;;;;;;;;;;5112990;27;20525;-87
2023/10/15 12:35:33;;;;;;;1999.90;999.90;;;;;;;;;;5108369;27;20122;-88
2023/10/15 12:38:02;;;;;;;1999.90;999.90;;;;;;;;;;5109679;27;20047;-86
2023/10/15 12:40:31;;;;;;;1999.90;999.90;;;;;;;;;;5114762;27;20046;-85
2023/10/15 12:42:59;;;;;;;1999.90;999.90;;;;;;;;;;5116001;27;20403;-92
2023/10/15 12:45:25;;;;;;;1999.90;999.90;;;;;;;;;;5111891;27;20047;-87
2023/10/15 12:47:54;;;;;;;1999.90;999.90;;;;;;;;;;5107862;27;20048;-89
2023/10/15 12:50:20;;;;;;;1999.90;999.90;;;;;;;;;;5104111;27;20051;-87
2023/10/15 12:52:47;;;;;;;1999.90;999.90;;;;;;;;;;5122622;27;20480;-87
2023/10/15 12:55:15;;;;;;;1999.90;999.90;;;;;;;;;;5119414;27;20051;-84
2023/10/15 12:57:42;;;;;;;1999.90;999.90;;;;;;;;;;5115233;27;20404;-86
2023/10/15 13:00:16;;;;;;;1999.90;999.90;;;;;;;;;;5113617;27;20426;-85
2023/10/15 13:02:43;;;;;;;1999.90;999.90;;;;;;;;;;5113238;27;20415;-86
2023/10/15 13:05:13;;;;;;;1999.90;999.90;;;;;;;;;;5116479;27;20056;-87
2023/10/15 13:07:39;;;;;;;1999.90;999.90;;;;;;;;;;5110986;27;20403;-88
2023/10/15 13:10:09;;;;;;;1999.90;999.90;;;;;;;;;;5114123;27;20050;-87
2023/10/15 13:12:36;;;;;;;1999.90;999.90;;;;;;;;;;5109815;27;20047;-87
2023/10/15 13:15:03;;;;;;;1999.90;999.90;;;;;;;;;;5113499;27;20487;-86
2023/10/15 13:17:29;;;;;;;1999.90;999.90;;;;;;;;;;5111563;27;20052;-87
2023/10/15 13:19:56;;;;;;;1999.90;999.90;;;;;;;;;;5114515;27;20424;-87
2023/10/15 13:22:24;;;;;;;1999.90;999.90;;;;;;;;;;5118959;27;20042;-88
2023/10/15 13:24:51;;;;;;;1999.90;999.90;;;;;;;;;;5116871;27;20052;-88
2023/10/15 13:27:17;;;;;;;1999.90;999.90;;;;;;;;;;5115523;27;20050;-86
2023/10/15 13:29:44;;;;;;;1999.90;999.90;;;;;;;;;;5107648;27;20047;-84
2023/10/15 13:32:11;;;;;;;1999.90;999.90;;;;;;;;;;5114194;27;20051;-86
2023/10/15 13:34:40;;;;;;;1999.90;999.90;;;;;;;;;;5116436;27;20142;-85
2023/10/15 13:37:07;;;;;;;1999.90;999.90;;;;;;;;;;5109927;27;20051;-84
2023/10/15 13:39:35;;;;;;;1999.90;999.90;;;;;;;;;;5111611;27;20066;-88
2023/10/15 13:42:01;;;;;;;1999.90;999.90;;;;;;;;;;5116285;27;20071;-88
2023/10/15 13:44:28;;;;;;;1999.90;999.90;;;;;;;;;;5114550;27;20480;-88
2023/10/15 13:46:54;;;;;;;1999.90;999.90;;;;;;;;;;5113992;27;20039;-84
2023/10/15 13:49:21;;;;;;;1999.90;999.90;;;;;;;;;;5119245;27;20043;-88
2023/10/15 13:51:48;;;;;;;1999.90;999.90;;;;;;;;;;5116234;27;20039;-86
2023/10/15 13:54:14;;;;;;;1999.90;999.90;;;;;;;;;;5117114;27;20070;-85
2023/10/15 13:56:42;;;;;;;1999.90;999.90;;;;;;;;;;5115737;27;20047;-85